createdAt,value
2018-05-26T00:57:24.972Z,18.30
2018-05-26T00:59:56.035Z,18.20
2018-05-26T01:02:31.662Z,18.30
2018-05-26T01:05:02.102Z,18.30
2018-05-26T01:43:14.049Z,18.90
2018-05-26T01:45:43.412Z,19.00
2018-05-26T01:48:34.496Z,19.00
2018-05-26T01:51:18.346Z,19.10
2018-05-26T01:54:03.007Z,19.10
2018-05-26T01:59:54.231Z,20.00
2018-05-26T02:02:34.434Z,19.00
2018-05-26T02:08:03.869Z,19.00
2018-05-26T02:14:00.703Z,18.70
2018-05-26T02:16:50.630Z,18.60
2018-05-26T02:19:32.379Z,18.50
2018-05-26T02:25:21.345Z,18.40
2018-05-26T02:27:58.627Z,18.30
2018-05-26T02:30:41.922Z,18.20
2018-05-26T02:37:50.110Z,18.00
2018-05-26T02:40:33.054Z,17.90
2018-05-26T02:57:16.817Z,17.60
2018-05-26T02:59:52.769Z,17.40
2018-05-26T03:05:21.862Z,17.20
2018-05-26T03:08:09.353Z,17.20
2018-05-26T03:10:50.792Z,17.20
2018-05-26T03:13:34.996Z,17.10
2018-05-26T03:55:42.356Z,16.90
2018-05-26T03:58:34.341Z,17.00
2018-05-26T04:01:10.171Z,17.00
2018-05-26T04:06:24.333Z,16.80
2018-05-26T04:09:02.681Z,16.80
2018-05-26T04:11:41.400Z,16.90
2018-05-26T04:17:53.974Z,17.00
2018-05-26T04:20:29.963Z,17.00
2018-05-26T04:25:57.583Z,17.00
2018-05-26T04:55:52.484Z,18.20
2018-05-26T04:58:50.792Z,18.40
2018-05-26T05:01:21.157Z,18.70
2018-05-26T05:03:52.272Z,18.90
2018-05-26T05:06:25.492Z,19.10
2018-05-26T05:08:59.863Z,19.20
2018-05-26T05:11:31.858Z,19.40
2018-05-26T05:14:01.164Z,19.50
2018-05-26T05:16:30.464Z,19.60
2018-05-26T05:18:59.777Z,19.80
2018-05-26T05:21:29.071Z,20.00
2018-05-26T05:23:58.380Z,20.20
2018-05-26T05:26:27.721Z,20.40
2018-05-26T05:28:56.993Z,20.60
2018-05-26T05:31:27.066Z,20.90
2018-05-26T05:33:56.378Z,20.90
2018-05-26T05:36:25.724Z,21.00
2018-05-26T05:38:55.777Z,21.20
2018-05-26T05:41:25.059Z,21.20
2018-05-26T05:43:54.376Z,21.30
2018-05-26T05:46:23.694Z,21.50
2018-05-26T05:48:52.984Z,21.60
2018-05-26T05:51:23.112Z,21.70
2018-05-26T05:53:52.426Z,21.60
2018-05-26T05:56:21.802Z,21.60
2018-05-26T05:58:51.045Z,21.70
2018-05-26T06:01:21.267Z,22.00
2018-05-26T06:03:50.576Z,22.20
2018-05-26T06:06:20.641Z,22.60
2018-05-26T06:08:49.970Z,22.50
2018-05-26T06:11:19.343Z,22.50
2018-05-26T06:13:48.635Z,22.50
2018-05-26T06:16:17.956Z,22.40
2018-05-26T06:18:47.277Z,22.40
2018-05-26T06:21:16.573Z,22.50
2018-05-26T06:23:45.874Z,22.70
2018-05-26T06:26:15.245Z,22.80
2018-05-26T06:28:44.549Z,22.80
2018-05-26T06:31:13.857Z,22.70
2018-05-26T06:33:43.156Z,22.50
2018-05-26T06:36:12.458Z,22.40
2018-05-26T06:38:41.777Z,22.20
2018-05-26T06:41:11.097Z,22.10
2018-05-26T06:43:40.425Z,22.00
2018-05-26T06:46:10.497Z,22.30
2018-05-26T06:48:39.820Z,22.20
2018-05-26T06:51:09.131Z,22.50
2018-05-26T06:53:38.443Z,22.60
2018-05-26T06:56:07.775Z,22.80
2018-05-26T06:58:37.079Z,23.00
2018-05-26T07:01:06.417Z,23.10
2018-05-26T07:03:35.709Z,23.30
2018-05-26T07:06:05.020Z,23.60
2018-05-26T07:08:34.314Z,23.80
2018-05-26T07:11:04.250Z,24.00
2018-05-26T07:13:33.556Z,24.20
2018-05-26T07:16:03.631Z,24.40
2018-05-26T07:18:32.996Z,24.40
2018-05-26T07:21:03.121Z,24.60
2018-05-26T07:23:32.446Z,24.70
2018-05-26T07:26:02.386Z,24.90
2018-05-26T07:28:35.000Z,25.10
2018-05-26T07:31:06.979Z,25.20
2018-05-26T07:33:40.163Z,25.20
2018-05-26T07:36:11.215Z,25.20
2018-05-26T07:38:42.943Z,25.20
2018-05-26T07:41:16.447Z,25.30
2018-05-26T07:43:54.415Z,25.40
2018-05-26T07:46:39.617Z,25.40
2018-05-26T07:49:10.911Z,25.40
2018-05-26T07:51:45.904Z,25.40
2018-05-26T07:54:19.291Z,25.50
2018-05-26T07:56:56.510Z,25.40
2018-05-26T07:59:30.539Z,25.30
2018-05-26T08:02:02.006Z,25.40
2018-05-26T08:04:33.054Z,25.30
2018-05-26T08:07:10.531Z,25.10
2018-05-26T08:09:46.742Z,25.00
2018-05-26T08:12:22.062Z,25.20
2018-05-26T08:17:35.785Z,25.70
2018-05-26T08:20:22.533Z,25.70
2018-05-26T08:22:53.164Z,25.60
2018-05-26T08:28:26.475Z,25.20
2018-05-26T08:36:33.527Z,25.30
2018-05-26T08:39:11.684Z,25.40
2018-05-26T08:41:45.819Z,25.60
2018-05-26T08:44:17.543Z,25.80
2018-05-26T08:46:54.679Z,25.90
2018-05-26T08:52:13.986Z,25.80
2018-05-26T08:54:48.755Z,25.90
2018-05-26T08:57:23.833Z,25.80
2018-05-26T08:59:55.636Z,25.70
2018-05-26T09:02:25.518Z,25.80
2018-05-26T09:04:54.965Z,25.90
2018-05-26T09:07:26.068Z,26.00
2018-05-26T09:09:57.100Z,25.90
2018-05-26T09:12:27.315Z,26.10
2018-05-26T09:14:58.505Z,26.30
2018-05-26T09:17:27.745Z,26.30
2018-05-26T09:19:57.827Z,26.40
2018-05-26T09:22:27.155Z,26.40
2018-05-26T09:24:56.452Z,26.60
2018-05-26T09:27:25.758Z,26.70
2018-05-26T09:29:55.086Z,26.90
2018-05-26T09:32:24.424Z,27.00
2018-05-26T09:34:54.653Z,26.90
2018-05-26T09:37:23.955Z,27.00
2018-05-26T09:39:53.283Z,27.00
2018-05-26T09:42:22.627Z,27.00
2018-05-26T09:44:52.632Z,27.00
2018-05-26T09:47:21.948Z,27.10
2018-05-26T09:49:51.268Z,26.80
2018-05-26T09:52:20.546Z,26.60
2018-05-26T09:54:49.866Z,26.50
2018-05-26T09:57:19.396Z,26.40
2018-05-26T09:59:49.700Z,26.40
2018-05-26T10:02:19.830Z,26.30
2018-05-26T10:04:52.156Z,26.50
2018-05-26T10:07:23.426Z,26.70
2018-05-26T10:09:58.369Z,26.60
2018-05-26T10:15:35.141Z,27.20
2018-05-26T10:18:04.896Z,27.10
2018-05-26T10:20:35.501Z,27.20
2018-05-26T10:23:11.527Z,27.10
2018-05-26T10:25:45.524Z,27.00
2018-05-26T10:28:14.892Z,27.00
2018-05-26T10:30:44.306Z,27.10
2018-05-26T10:33:14.476Z,27.30
2018-05-26T10:35:44.661Z,27.40
2018-05-26T10:38:13.987Z,27.50
2018-05-26T10:40:43.342Z,27.60
2018-05-26T10:43:12.638Z,27.80
2018-05-26T10:45:41.991Z,27.80
2018-05-26T10:48:12.069Z,27.80
2018-05-26T10:50:41.363Z,27.80
2018-05-26T10:53:10.697Z,27.80
2018-05-26T10:55:40.669Z,27.70
2018-05-26T10:58:09.963Z,27.80
2018-05-26T11:00:40.071Z,27.80
2018-05-26T11:03:09.393Z,27.90
2018-05-26T11:05:38.717Z,27.90
2018-05-26T11:08:08.928Z,28.00
2018-05-26T11:10:38.241Z,28.20
2018-05-26T11:13:08.255Z,28.30
2018-05-26T11:15:37.573Z,28.30
2018-05-26T11:18:07.808Z,28.30
2018-05-26T11:20:38.631Z,27.80
2018-05-26T11:23:07.968Z,27.70
2018-05-26T11:25:38.125Z,27.70
2018-05-26T11:28:08.367Z,27.80
2018-05-26T11:30:37.666Z,27.90
2018-05-26T11:33:07.600Z,28.00
2018-05-26T11:35:37.639Z,28.20
2018-05-26T11:38:07.339Z,28.20
2018-05-26T11:40:37.471Z,28.30
2018-05-26T11:43:06.765Z,28.30
2018-05-26T11:45:36.049Z,28.50
2018-05-26T11:48:06.147Z,28.60
2018-05-26T11:50:35.430Z,28.60
2018-05-26T11:53:04.828Z,28.80
2018-05-26T11:55:34.140Z,28.70
2018-05-26T11:58:03.457Z,28.70
2018-05-26T12:00:32.768Z,28.50
2018-05-26T12:03:02.117Z,28.40
2018-05-26T12:05:32.178Z,28.50
2018-05-26T12:08:01.512Z,28.40
2018-05-26T12:10:31.138Z,28.40
2018-05-26T12:13:00.476Z,28.30
2018-05-26T12:15:29.807Z,28.40
2018-05-26T12:17:59.875Z,28.10
2018-05-26T12:20:29.207Z,28.10
2018-05-26T12:22:59.692Z,28.20
2018-05-26T12:25:29.064Z,28.10
2018-05-26T12:27:58.341Z,28.20
2018-05-26T12:33:17.029Z,28.40
2018-05-26T12:35:49.498Z,28.00
2018-05-26T12:38:25.631Z,28.00
2018-05-26T12:40:59.244Z,27.90
2018-05-26T12:43:32.833Z,27.80
2018-05-26T12:46:05.170Z,27.80
2018-05-26T12:48:34.604Z,27.80
2018-05-26T12:51:04.207Z,27.90
2018-05-26T12:53:34.881Z,27.90
2018-05-26T12:56:04.197Z,27.90
2018-05-26T12:58:34.296Z,28.00
2018-05-26T13:01:04.308Z,28.00
2018-05-26T13:03:34.440Z,28.10
2018-05-26T13:06:04.547Z,28.40
2018-05-26T13:08:33.801Z,28.40
2018-05-26T13:11:04.031Z,28.30
2018-05-26T13:13:33.376Z,28.10
2018-05-26T13:16:02.900Z,28.00
2018-05-26T13:18:32.850Z,28.00
2018-05-26T13:21:02.277Z,28.00
2018-05-26T13:23:31.727Z,28.10
2018-05-26T13:26:02.757Z,28.20
2018-05-26T13:28:32.759Z,28.20
2018-05-26T13:31:06.365Z,28.30
2018-05-26T13:33:38.465Z,28.10
2018-05-26T13:36:10.289Z,28.10
2018-05-26T13:38:45.285Z,28.10
2018-05-26T13:41:18.619Z,28.10
2018-05-26T13:43:52.817Z,28.00
2018-05-26T13:49:14.936Z,28.00
2018-05-26T13:51:47.787Z,28.00
2018-05-26T13:54:21.210Z,28.10
2018-05-26T13:56:56.127Z,28.10
2018-05-26T13:59:35.712Z,28.20
2018-05-26T14:02:09.077Z,28.40
2018-05-26T14:05:00.289Z,28.30
2018-05-26T14:47:09.139Z,29.20
2018-05-26T14:50:20.853Z,28.30
2018-05-26T14:55:45.558Z,28.30
2018-05-26T15:01:07.119Z,28.30
2018-05-26T15:12:06.792Z,28.40
2018-05-26T15:14:45.090Z,28.50
2018-05-26T15:17:19.972Z,28.30
2018-05-26T15:20:00.131Z,28.20
2018-05-26T15:22:34.930Z,28.00
2018-05-26T15:31:09.448Z,27.90
2018-05-26T15:37:15.753Z,27.80
2018-05-26T15:42:45.225Z,27.80
2018-05-26T15:54:54.616Z,27.70
2018-05-26T15:58:10.789Z,27.70
2018-05-26T16:01:00.066Z,27.80
2018-05-26T16:06:56.756Z,27.90
2018-05-26T16:19:33.791Z,27.60
2018-05-26T16:43:11.053Z,27.60
2018-05-26T16:57:54.418Z,26.60
2018-05-26T17:04:23.526Z,27.20
2018-05-26T17:07:14.908Z,27.20
2018-05-26T17:09:59.909Z,27.20
2018-05-26T18:09:58.688Z,26.60
2018-05-26T18:29:03.920Z,26.40
2018-05-26T18:31:45.108Z,26.30
2018-05-26T18:35:16.938Z,26.30
2018-05-26T18:41:18.098Z,26.20
2018-05-26T18:44:23.611Z,26.10
2018-05-26T18:49:56.803Z,26.00
2018-05-26T19:02:55.854Z,25.80
2018-05-26T19:40:05.574Z,25.10
2018-05-26T19:46:20.300Z,24.90
2018-05-26T19:52:33.714Z,24.70
2018-05-26T20:04:49.776Z,24.50
